Time;durP1;ratioP1;P1;durP2;ratioP2;P2;SDS_P1;SDS_P2;PMS_P1;PMS_P2;Temp;Humidity;BMP_temperature;BMP_pressure;BME280_temperature;BME280_humidity;BME280_pressure;Samples;Min_cycle;Max_cycle;Signal;HPM_P1;HPM_P2
2023/04/04 18:34:06;;;;;;;4.43;2.87;;;;;;;4.01;60.78;96769.75;5073154;27;20365;-70
2023/04/04 18:36:35;;;;;;;4.80;2.90;;;;;;;3.76;60.30;96770.09;5072327;28;20207;-70
2023/04/04 18:39:02;;;;;;;7.97;3.40;;;;;;;3.61;60.52;96767.91;5071978;28;20210;-70
2023/04/04 18:41:28;;;;;;;5.33;3.13;;;;;;;3.44;60.86;96771.03;5075750;28;20224;-70
2023/04/04 18:43:55;;;;;;;9.77;4.40;;;;;;;3.59;61.98;96780.19;5076013;28;20212;-70
2023/04/04 18:46:22;;;;;;;7.47;4.40;;;;;;;3.58;61.59;96774.19;5074244;28;20196;-69
2023/04/04 18:48:48;;;;;;;10.70;5.80;;;;;;;3.66;61.59;96777.81;5071609;28;20195;-69
2023/04/04 18:51:16;;;;;;;12.77;5.53;;;;;;;3.73;62.03;96771.19;5072212;28;20228;-69
2023/04/04 18:53:43;;;;;;;4.53;3.07;;;;;;;4.42;74.42;96771.47;5072580;28;20219;-70
2023/04/04 18:56:09;;;;;;;4.80;3.30;;;;;;;4.13;63.90;96782.63;5071484;28;20437;-69
2023/04/04 18:58:36;;;;;;;6.63;3.27;;;;;;;3.94;61.88;96779.88;5071731;28;20707;-68
2023/04/04 19:01:03;;;;;;;3.80;2.50;;;;;;;2.94;63.96;96781.94;5071303;28;20278;-71
2023/04/04 19:03:36;;;;;;;5.37;2.70;;;;;;;2.75;65.36;96775.63;5071694;28;20199;-69
2023/04/04 19:06:06;;;;;;;5.00;2.73;;;;;;;2.71;65.27;96779.41;5072862;28;20797;-69
2023/04/04 19:08:38;;;;;;;7.80;3.00;;;;;;;2.63;65.30;96782.59;5070479;28;20196;-69
2023/04/04 19:11:05;;;;;;;7.67;2.70;;;;;;;2.40;66.23;96783.50;5071892;28;20236;-69
2023/04/04 19:13:31;;;;;;;6.83;3.20;;;;;;;2.16;67.18;96791.47;5071769;28;20216;-69
2023/04/04 19:15:58;;;;;;;7.90;3.50;;;;;;;2.14;68.34;96788.16;5071910;28;20203;-69
2023/04/04 19:18:25;;;;;;;6.90;2.97;;;;;;;2.03;67.98;96786.34;5071086;28;20200;-69
2023/04/04 19:20:52;;;;;;;6.77;2.97;;;;;;;2.09;68.33;96791.09;5071468;28;20223;-69
2023/04/04 19:23:18;;;;;;;7.30;2.83;;;;;;;2.00;68.59;96783.16;5071272;28;20208;-69
2023/04/04 19:25:46;;;;;;;7.57;3.00;;;;;;;1.77;69.96;96789.19;5072004;28;20218;-69
2023/04/04 19:28:13;;;;;;;4.87;2.80;;;;;;;1.72;70.62;96791.28;5070490;28;20200;-69
2023/04/04 19:30:42;;;;;;;4.67;2.83;;;;;;;1.99;69.15;96797.91;5069330;28;20230;-69
2023/04/04 19:33:10;;;;;;;7.37;2.83;;;;;;;1.89;69.57;96790.91;5071065;28;20796;-69
2023/04/04 19:35:52;;;;;;;8.10;2.67;;;;;;;1.95;69.45;96795.66;5071124;28;20607;-69
2023/04/04 19:38:23;;;;;;;5.30;2.70;;;;;;;1.81;70.09;96796.66;5062068;28;20711;-69
2023/04/04 19:40:53;;;;;;;6.20;3.20;;;;;;;1.75;69.60;96788.47;5050774;28;20650;-69
2023/04/04 19:43:21;;;;;;;4.70;3.20;;;;;;;1.82;69.16;96784.50;5048341;28;20970;-69
2023/04/04 19:45:49;;;;;;;4.43;2.57;;;;;;;1.78;69.21;96784.81;5037914;28;20588;-69
2023/04/04 19:48:40;;;;;;;5.53;2.90;;;;;;;2.08;69.43;96786.03;5037230;28;20208;-69
2023/04/04 19:51:09;;;;;;;5.63;2.43;;;;;;;1.98;69.88;96782.44;5037189;28;20260;-69
2023/04/04 19:53:36;;;;;;;13.67;3.13;;;;;;;1.94;69.51;96787.00;5037452;28;20243;-69
2023/04/04 19:56:08;;;;;;;5.33;3.47;;;;;;;1.87;68.82;96784.97;5036695;28;20204;-69
2023/04/04 19:58:35;;;;;;;4.60;2.70;;;;;;;1.59;70.47;96785.34;5036876;28;20609;-69
2023/04/04 20:01:02;;;;;;;5.63;3.27;;;;;;;1.57;71.71;96788.97;5035547;28;20228;-68
2023/04/04 20:03:32;;;;;;;6.13;3.50;;;;;;;1.47;70.82;96793.97;5037326;28;20873;-68
2023/04/04 20:06:09;;;;;;;5.07;2.83;;;;;;;1.71;70.22;96784.44;5036628;28;20237;-68
2023/04/04 20:08:42;;;;;;;11.27;3.30;;;;;;;1.53;71.34;96788.34;5036289;28;20299;-69
2023/04/04 20:11:11;;;;;;;7.17;3.00;;;;;;;1.51;70.41;96792.81;5036069;28;21120;-69
2023/04/04 20:13:39;;;;;;;5.90;3.37;;;;;;;1.36;71.57;96787.88;5035972;28;20720;-69
2023/04/04 20:16:08;;;;;;;5.97;2.40;;;;;;;1.61;71.09;96791.22;5035746;28;20212;-69
2023/04/04 20:18:36;;;;;;;5.30;2.80;;;;;;;1.67;70.67;96793.41;5035493;28;20204;-69
2023/04/04 20:21:06;;;;;;;5.87;3.47;;;;;;;1.60;70.89;96791.34;5035788;28;20724;-69
2023/04/04 20:23:40;;;;;;;6.40;3.13;;;;;;;1.42;71.56;96788.28;5037512;28;20220;-69
2023/04/04 20:26:08;;;;;;;5.73;3.20;;;;;;;1.49;71.94;96792.13;5036516;28;20216;-69
2023/04/04 20:28:36;;;;;;;6.63;2.90;;;;;;;1.69;71.80;96790.69;5035856;28;20698;-69
2023/04/04 20:31:06;;;;;;;8.23;3.60;;;;;;;1.51;71.56;96792.81;5036826;28;20605;-68
2023/04/04 20:33:35;;;;;;;5.50;2.97;;;;;;;1.53;71.87;96796.16;5036297;28;20221;-68
2023/04/04 20:36:27;;;;;;;5.23;3.20;;;;;;;1.72;71.92;96787.84;5037230;28;20342;-68
2023/04/04 20:38:54;;;;;;;7.93;2.63;;;;;;;1.67;71.59;96790.78;5035484;28;20214;-70
2023/04/04 20:41:23;;;;;;;11.17;3.30;;;;;;;1.69;71.21;96795.88;5036604;28;20221;-70
2023/04/04 20:43:53;;;;;;;6.37;2.97;;;;;;;1.61;71.72;96788.63;5035870;28;20193;-70
2023/04/04 20:46:20;;;;;;;6.37;2.87;;;;;;;1.55;72.28;96789.06;5036831;28;20571;-70
2023/04/04 20:48:47;;;;;;;4.30;2.60;;;;;;;1.33;72.64;96794.13;5035931;28;20208;-70
2023/04/04 20:51:26;;;;;;;7.13;3.07;;;;;;;1.45;73.31;96795.88;5035735;28;20232;-70
2023/04/04 20:53:53;;;;;;;7.43;3.70;;;;;;;1.29;73.97;96795.28;5036557;28;20227;-70
2023/04/04 20:56:41;;;;;;;5.03;3.27;;;;;;;1.34;74.51;96795.78;5035548;28;20198;-70
2023/04/04 20:59:28;;;;;;;4.97;3.13;;;;;;;1.30;74.38;96798.72;5035578;28;20209;-70
2023/04/04 21:02:01;;;;;;;5.90;2.40;;;;;;;1.24;74.99;96796.53;5036342;28;20228;-70
2023/04/04 21:04:28;;;;;;;6.30;3.13;;;;;;;1.01;75.74;96801.69;5036436;28;20197;-69
2023/04/04 21:06:56;;;;;;;7.37;3.13;;;;;;;0.90;76.15;96804.19;5036093;28;21111;-70
2023/04/04 21:09:24;;;;;;;7.57;3.10;;;;;;;1.08;76.19;96805.50;5035807;28;20211;-70
2023/04/04 21:11:51;;;;;;;5.70;3.40;;;;;;;1.21;75.77;96804.56;5036378;28;21011;-70
2023/04/04 21:14:23;;;;;;;7.13;3.77;;;;;;;1.26;74.47;96803.28;5036193;28;20220;-70
2023/04/04 21:16:50;;;;;;;7.37;3.63;;;;;;;1.10;74.97;96808.84;5036285;28;20208;-70
2023/04/04 21:19:19;;;;;;;5.73;3.07;;;;;;;1.30;74.48;96801.31;5035570;28;20205;-70
2023/04/04 21:21:46;;;;;;;7.90;3.70;;;;;;;0.98;75.20;96804.47;5035801;28;20634;-70
2023/04/04 21:24:13;;;;;;;9.27;3.80;;;;;;;1.16;74.65;96796.25;5035852;28;20206;-70
2023/04/04 21:26:41;;;;;;;7.33;3.53;;;;;;;1.09;74.68;96800.19;5036831;28;20564;-70
2023/04/04 21:29:15;;;;;;;6.87;3.80;;;;;;;0.99;73.45;96798.34;5035145;28;20239;-70
2023/04/04 21:31:43;;;;;;;9.87;4.27;;;;;;;0.98;72.73;96799.28;5035227;28;20278;-70
2023/04/04 21:34:13;;;;;;;8.73;4.03;;;;;;;0.82;73.08;96799.50;5036544;28;20229;-70
2023/04/04 21:36:40;;;;;;;8.30;3.70;;;;;;;0.67;74.03;96802.31;5036533;28;20196;-70
2023/04/04 21:39:10;;;;;;;8.33;3.97;;;;;;;0.93;74.28;96810.00;5034686;28;20205;-70
2023/04/04 21:41:37;;;;;;;8.80;4.20;;;;;;;0.96;74.48;96807.16;5034728;28;20342;-70
2023/04/04 21:44:05;;;;;;;10.70;3.90;;;;;;;0.87;73.99;96807.81;5036011;28;20201;-70
2023/04/04 21:46:33;;;;;;;9.63;4.10;;;;;;;0.61;75.01;96802.72;5035464;28;20238;-70
2023/04/04 21:49:01;;;;;;;7.23;3.63;;;;;;;0.96;75.27;96801.16;5035358;28;20201;-70
2023/04/04 21:51:28;;;;;;;8.77;3.90;;;;;;;0.87;74.96;96810.41;5035108;28;20640;-70
2023/04/04 21:53:55;;;;;;;7.67;3.57;;;;;;;0.96;75.07;96794.19;5035246;28;20221;-70
2023/04/04 21:56:25;;;;;;;8.93;4.30;;;;;;;0.92;75.42;96802.31;5035729;28;20201;-70
2023/04/04 21:58:52;;;;;;;10.10;4.40;;;;;;;0.93;76.20;96798.75;5034804;28;20203;-70
2023/04/04 22:01:19;;;;;;;10.47;4.33;;;;;;;0.84;77.56;96794.22;5034719;28;20232;-70
2023/04/04 22:03:46;;;;;;;11.00;5.07;;;;;;;0.87;77.76;96794.84;5035868;28;20631;-70
2023/04/04 22:06:13;;;;;;;10.20;4.83;;;;;;;0.88;76.69;96793.06;5035581;28;20219;-70
2023/04/04 22:08:40;;;;;;;10.83;4.50;;;;;;;0.64;77.51;96794.75;5034466;28;20684;-70
2023/04/04 22:11:07;;;;;;;8.23;4.43;;;;;;;0.78;77.35;96794.66;5035017;28;20263;-70
2023/04/04 22:13:33;;;;;;;9.43;5.13;;;;;;;0.83;76.72;96802.94;5035378;28;20251;-70
2023/04/04 22:16:00;;;;;;;15.37;4.80;;;;;;;0.72;76.59;96802.84;5035942;28;20585;-70
2023/04/04 22:18:31;;;;;;;14.33;5.33;;;;;;;0.71;76.20;96799.44;5034672;28;20570;-70
2023/04/04 22:21:01;;;;;;;10.63;5.37;;;;;;;0.78;76.38;96789.47;5034765;28;20217;-70
2023/04/04 22:23:35;;;;;;;8.40;4.50;;;;;;;0.93;76.26;96798.75;5035045;28;20216;-70
2023/04/04 22:26:04;;;;;;;9.20;4.40;;;;;;;0.92;75.54;96802.31;5035155;28;20240;-70
2023/04/04 22:28:32;;;;;;;13.73;4.43;;;;;;;0.89;76.01;96798.16;5034982;28;20743;-70
2023/04/04 22:30:59;;;;;;;9.80;4.40;;;;;;;0.71;75.86;96794.25;5035439;28;20240;-70
2023/04/04 22:33:25;;;;;;;7.83;4.07;;;;;;;0.74;76.22;96794.03;5036158;28;20229;-70
2023/04/04 22:35:53;;;;;;;13.73;4.50;;;;;;;0.73;76.18;96800.13;5036625;28;20201;-70
2023/04/04 22:38:19;;;;;;;6.53;3.40;;;;;;;0.66;76.12;96790.28;5035392;28;20783;-70
2023/04/04 22:40:47;;;;;;;6.63;3.43;;;;;;;0.70;76.75;96782.19;5035290;28;20217;-70
2023/04/04 22:43:14;;;;;;;7.23;3.70;;;;;;;0.62;76.67;96788.81;5036118;28;20258;-70
2023/04/04 22:45:40;;;;;;;8.10;4.33;;;;;;;0.54;75.95;96795.50;5037163;28;20296;-70
2023/04/04 22:48:07;;;;;;;6.23;4.07;;;;;;;0.27;76.65;96789.56;5035204;28;20213;-70
2023/04/04 22:50:34;;;;;;;8.70;3.90;;;;;;;0.20;77.01;96794.28;5035702;28;20222;-70
2023/04/04 22:53:02;;;;;;;8.43;3.30;;;;;;;0.14;78.10;96792.13;5035519;28;20208;-69
2023/04/04 22:55:29;;;;;;;7.17;3.90;;;;;;;0.27;77.21;96792.97;5036163;28;20874;-69
2023/04/04 22:57:57;;;;;;;6.23;3.50;;;;;;;0.50;77.12;96784.50;5034736;28;20201;-69
2023/04/04 23:00:23;;;;;;;10.17;4.40;;;;;;;0.56;77.16;96789.28;5036173;28;20201;-69
2023/04/04 23:02:51;;;;;;;9.10;4.73;;;;;;;0.49;77.60;96780.22;5035453;28;20201;-68
2023/04/04 23:05:18;;;;;;;8.63;4.50;;;;;;;0.61;76.41;96776.78;5035718;28;20251;-69
2023/04/04 23:07:45;;;;;;;14.60;4.40;;;;;;;0.56;76.69;96778.03;5035127;28;20952;-69
2023/04/04 23:10:14;;;;;;;9.93;4.37;;;;;;;0.57;77.13;96770.16;5035894;28;20316;-68
2023/04/04 23:12:40;;;;;;;8.60;3.83;;;;;;;0.62;77.04;96778.47;5035415;28;20229;-69
2023/04/04 23:15:09;;;;;;;6.00;3.67;;;;;;;0.59;77.19;96778.69;5036003;28;20225;-69
2023/04/04 23:17:37;;;;;;;10.07;4.33;;;;;;;0.58;77.25;96769.22;5035307;28;20207;-68
2023/04/04 23:20:08;;;;;;;12.87;4.23;;;;;;;0.55;77.68;96766.88;5038031;28;20251;-69
2023/04/04 23:22:34;;;;;;;10.17;4.03;;;;;;;0.25;78.80;96771.50;5039234;28;20223;-69
2023/04/04 23:25:01;;;;;;;7.70;4.07;;;;;;;0.28;79.94;96771.31;5039886;28;20228;-69
2023/04/04 23:27:27;;;;;;;6.27;3.87;;;;;;;0.33;79.81;96771.84;5039499;28;20212;-69
2023/04/04 23:29:59;;;;;;;9.03;4.30;;;;;;;0.35;80.05;96769.13;5039538;28;20209;-69
2023/04/04 23:32:27;;;;;;;9.20;3.60;;;;;;;0.49;79.19;96759.50;5039750;28;20285;-69
2023/04/04 23:34:53;;;;;;;5.70;3.77;;;;;;;0.39;79.03;96750.66;5039800;28;20714;-68
2023/04/04 23:37:21;;;;;;;10.90;3.90;;;;;;;0.42;78.94;96766.03;5038788;28;20206;-69
2023/04/04 23:39:47;;;;;;;6.17;3.70;;;;;;;0.38;78.76;96761.16;5039346;28;20235;-68
2023/04/04 23:42:14;;;;;;;4.60;3.13;;;;;;;0.39;78.63;96758.44;5039453;28;20225;-69
2023/04/04 23:44:40;;;;;;;10.63;3.63;;;;;;;0.37;79.19;96767.25;5039244;28;20197;-69
2023/04/04 23:47:07;;;;;;;8.20;4.30;;;;;;;0.46;78.46;96756.25;5039316;28;20216;-69
2023/04/04 23:49:35;;;;;;;11.03;4.10;;;;;;;0.51;78.46;96749.84;5039010;28;20205;-69
2023/04/04 23:52:02;;;;;;;6.70;3.93;;;;;;;0.62;77.20;96750.78;5038449;28;20600;-69
2023/04/04 23:54:28;;;;;;;7.33;4.17;;;;;;;0.57;77.25;96751.19;5038961;28;20236;-68
2023/04/04 23:56:55;;;;;;;7.30;3.97;;;;;;;0.56;77.24;96747.78;5040276;28;20205;-70
2023/04/04 23:59:21;;;;;;;4.13;2.77;;;;;;;0.63;77.91;96749.81;5037990;28;20204;-69
